Time;durP1;ratioP1;P1;durP2;ratioP2;P2;SDS_P1;SDS_P2;PMS_P1;PMS_P2;Temp;Humidity;BMP_temperature;BMP_pressure;BME280_temperature;BME280_humidity;BME280_pressure;Samples;Min_cycle;Max_cycle;Signal;HPM_P1;HPM_P2
2022/05/20 00:00:44;;;;;;;7.13;1.70;;;12.40;91.70;;;;;;4976285;28;20060;-95
2022/05/20 00:03:10;;;;;;;3.78;1.50;;;12.30;92.10;;;;;;4975503;28;20432;-92
2022/05/20 00:05:36;;;;;;;11.13;2.00;;;12.20;92.40;;;;;;4993428;28;20057;-94
2022/05/20 00:08:03;;;;;;;5.18;1.35;;;12.10;92.80;;;;;;4975743;28;20028;-93
2022/05/20 00:10:30;;;;;;;9.15;1.63;;;12.10;93.20;;;;;;4993338;28;20030;-93
2022/05/20 00:12:56;;;;;;;11.40;2.53;;;12.10;93.60;;;;;;4973141;28;20089;-93
2022/05/20 00:15:24;;;;;;;6.53;1.40;;;12.10;94.00;;;;;;4975520;28;20050;-93
2022/05/20 00:17:50;;;;;;;4.32;1.70;;;12.10;94.30;;;;;;4975516;28;20456;-93
2022/05/20 00:20:18;;;;;;;12.07;1.50;;;12.20;94.70;;;;;;4975928;28;20547;-93
2022/05/20 00:22:44;;;;;;;10.10;1.90;;;12.20;94.90;;;;;;4976374;28;20022;-93
2022/05/20 00:27:56;;;;;;;7.07;1.80;;;12.30;95.30;;;;;;4999494;28;20044;-94
2022/05/20 00:30:22;;;;;;;4.95;1.73;;;12.30;95.40;;;;;;4976234;28;20057;-94
2022/05/20 00:32:48;;;;;;;6.07;1.58;;;12.30;95.50;;;;;;4975869;28;20030;-93
2022/05/20 00:35:16;;;;;;;4.72;1.80;;;12.30;95.80;;;;;;4991477;28;20045;-94
2022/05/20 00:37:42;;;;;;;4.18;1.35;;;12.20;96.10;;;;;;4992571;28;20021;-94
2022/05/20 00:40:10;;;;;;;6.03;2.00;;;12.10;96.40;;;;;;4992847;28;20030;-92
2022/05/20 00:42:36;;;;;;;5.03;1.42;;;12.10;96.90;;;;;;4973600;28;20044;-93
2022/05/20 00:45:03;;;;;;;7.88;1.42;;;12.10;97.20;;;;;;4976255;28;20029;-94
2022/05/20 00:47:32;;;;;;;5.70;1.60;;;12.00;97.50;;;;;;4975475;28;20030;-92
2022/05/20 00:50:02;;;;;;;4.97;1.80;;;12.00;97.80;;;;;;4990547;28;20058;-92
2022/05/20 00:52:31;;;;;;;7.25;1.90;;;12.00;98.10;;;;;;4992883;28;20050;-93
2022/05/20 00:55:06;;;;;;;6.93;1.77;;;11.90;98.40;;;;;;4990839;28;20021;-92
2022/05/20 00:57:40;;;;;;;7.25;1.70;;;11.90;98.60;;;;;;4975812;28;20022;-92
2022/05/20 01:00:12;;;;;;;4.05;1.45;;;11.80;98.80;;;;;;4975625;28;20046;-93
2022/05/20 01:02:38;;;;;;;6.40;1.60;;;11.80;99.10;;;;;;4973500;28;20387;-91
2022/05/20 01:05:15;;;;;;;9.55;1.90;;;11.70;99.50;;;;;;4976451;28;20030;-95
2022/05/20 01:07:42;;;;;;;5.82;1.70;;;11.70;99.90;;;;;;4993029;28;20029;-94
2022/05/20 01:10:09;;;;;;;6.03;1.88;;;11.60;99.90;;;;;;4978430;28;20033;-95
2022/05/20 01:12:35;;;;;;;8.23;1.60;;;11.50;99.90;;;;;;4994949;28;20368;-94
2022/05/20 01:15:04;;;;;;;7.72;2.00;;;11.50;99.90;;;;;;5002633;28;20051;-92
2022/05/20 01:17:29;;;;;;;6.32;1.60;;;11.40;99.90;;;;;;4982458;28;20038;-94
2022/05/20 01:19:56;;;;;;;11.13;2.08;;;11.40;99.90;;;;;;4981462;28;20036;-94
2022/05/20 01:22:49;;;;;;;4.57;1.77;;;11.30;99.90;;;;;;4979246;28;20018;-93
2022/05/20 01:25:15;;;;;;;5.05;1.48;;;11.20;99.90;;;;;;4995800;28;20108;-93
2022/05/20 01:27:42;;;;;;;5.80;1.70;;;11.20;99.90;;;;;;4999777;28;20129;-92
2022/05/20 01:30:11;;;;;;;3.28;1.60;;;11.20;99.90;;;;;;4976199;28;20465;-94
2022/05/20 01:32:37;;;;;;;10.75;2.10;;;11.10;99.90;;;;;;4986529;28;20130;-93
2022/05/20 01:35:07;;;;;;;6.80;2.15;;;11.10;99.90;;;;;;4975186;28;20555;-94
2022/05/20 01:37:32;;;;;;;7.50;1.80;;;11.10;99.90;;;;;;4974525;28;20023;-95
2022/05/20 01:39:59;;;;;;;8.07;1.80;;;11.10;99.90;;;;;;4975130;28;20112;-95
2022/05/20 01:42:30;;;;;;;4.93;1.75;;;11.10;99.90;;;;;;4975155;28;20018;-92
2022/05/20 01:45:01;;;;;;;8.80;2.50;;;11.10;99.90;;;;;;4980549;28;20027;-93
2022/05/20 01:47:33;;;;;;;5.30;1.90;;;11.10;99.90;;;;;;4977438;28;20037;-95
2022/05/20 01:50:08;;;;;;;4.55;1.73;;;11.10;99.90;;;;;;4976657;28;20057;-92
2022/05/20 01:52:56;;;;;;;5.22;2.13;;;11.10;99.90;;;;;;4996119;28;20092;-92
2022/05/20 01:55:34;;;;;;;7.35;2.08;;;11.10;99.90;;;;;;4987844;28;20022;-92
2022/05/20 01:58:21;;;;;;;8.02;2.38;;;11.10;99.90;;;;;;4975960;28;20595;-93
2022/05/20 02:00:49;;;;;;;8.00;1.88;;;11.00;99.90;;;;;;4977112;28;20026;-92
2022/05/20 02:03:33;;;;;;;6.20;2.05;;;11.00;99.90;;;;;;4978316;28;20077;-93
2022/05/20 02:06:10;;;;;;;7.55;1.95;;;10.90;99.90;;;;;;4983921;28;20531;-94
2022/05/20 02:08:44;;;;;;;4.70;1.63;;;10.90;99.90;;;;;;4989833;28;20070;-93
2022/05/20 02:11:13;;;;;;;4.43;1.80;;;10.80;99.90;;;;;;4996099;28;20101;-93
2022/05/20 02:13:45;;;;;;;4.82;1.50;;;10.80;99.90;;;;;;4985732;28;20027;-93
2022/05/20 02:16:17;;;;;;;9.52;2.35;;;10.80;99.90;;;;;;4982181;28;20030;-92
2022/05/20 02:19:06;;;;;;;9.88;1.75;;;10.70;99.90;;;;;;4981958;28;20030;-92
2022/05/20 02:21:35;;;;;;;3.78;1.75;;;10.70;99.90;;;;;;4985629;28;20093;-93
2022/05/20 02:24:07;;;;;;;3.45;1.90;;;10.60;99.90;;;;;;4977819;28;20125;-92
2022/05/20 02:26:40;;;;;;;6.15;2.20;;;10.60;99.90;;;;;;4977020;28;20026;-92
2022/05/20 02:29:13;;;;;;;5.25;2.08;;;10.50;99.90;;;;;;5003093;28;20034;-91
2022/05/20 02:31:46;;;;;;;5.93;1.90;;;10.50;99.90;;;;;;5015414;28;20499;-92
2022/05/20 02:34:12;;;;;;;5.40;1.58;;;10.50;99.90;;;;;;4997996;28;20118;-94
2022/05/20 02:36:38;;;;;;;4.38;1.75;;;10.60;99.90;;;;;;4998086;28;20057;-92
2022/05/20 02:39:07;;;;;;;8.48;1.95;;;10.60;99.90;;;;;;5003465;28;20026;-93
2022/05/20 02:41:32;;;;;;;6.38;1.95;;;10.60;99.90;;;;;;4997678;28;20029;-92
2022/05/20 02:43:58;;;;;;;7.20;2.15;;;10.60;99.90;;;;;;4997963;28;20164;-92
2022/05/20 02:46:25;;;;;;;6.20;2.20;;;10.60;99.90;;;;;;5015147;28;20029;-92
2022/05/20 02:48:50;;;;;;;9.93;1.88;;;10.50;99.90;;;;;;4998029;28;20056;-93
2022/05/20 02:51:17;;;;;;;7.53;2.45;;;10.50;99.90;;;;;;4997598;28;20072;-92
2022/05/20 02:53:44;;;;;;;9.13;2.45;;;10.40;99.90;;;;;;5015268;28;20026;-93
2022/05/20 02:56:09;;;;;;;5.85;1.75;;;10.40;99.90;;;;;;4997112;28;20121;-93
2022/05/20 03:04:09;;;;;;;9.07;1.88;;;10.40;99.90;;;;;;5015166;28;20033;-93
2022/05/20 03:06:43;;;;;;;6.68;2.20;;;10.40;99.90;;;;;;4997279;28;20052;-93
2022/05/20 03:09:12;;;;;;;8.10;2.40;;;10.40;99.90;;;;;;4994267;28;20028;-93
2022/05/20 03:11:41;;;;;;;3.90;1.65;;;10.40;99.90;;;;;;5014313;28;20114;-92
2022/05/20 03:14:10;;;;;;;6.53;1.73;;;10.30;99.90;;;;;;5010026;28;20050;-91
2022/05/20 03:16:37;;;;;;;5.00;2.42;;;10.30;99.90;;;;;;4989017;28;20438;-94
2022/05/20 03:19:04;;;;;;;12.75;2.47;;;10.30;99.90;;;;;;4982731;28;20035;-93
2022/05/20 03:21:31;;;;;;;6.72;2.28;;;10.20;99.90;;;;;;4994200;28;20025;-94
2022/05/20 03:23:59;;;;;;;3.75;1.90;;;10.20;99.90;;;;;;4977185;28;20480;-92
2022/05/20 03:26:29;;;;;;;7.90;1.77;;;10.20;99.90;;;;;;4980506;28;20037;-93
2022/05/20 03:28:57;;;;;;;7.60;2.53;;;10.30;99.90;;;;;;4977811;28;20022;-93
2022/05/20 03:31:23;;;;;;;6.78;1.88;;;10.30;99.90;;;;;;4977796;28;20034;-92
2022/05/20 03:33:49;;;;;;;7.28;1.80;;;10.30;99.90;;;;;;4977593;28;20118;-94
2022/05/20 03:36:14;;;;;;;10.60;3.33;;;10.30;99.90;;;;;;4976982;28;20018;-94
2022/05/20 03:38:40;;;;;;;6.82;2.45;;;10.40;99.90;;;;;;4977032;28;20497;-92
2022/05/20 03:41:06;;;;;;;9.93;2.30;;;10.40;99.90;;;;;;4983247;28;20065;-93
2022/05/20 03:43:33;;;;;;;6.93;2.10;;;10.40;99.90;;;;;;4980818;28;20018;-93
2022/05/20 03:45:59;;;;;;;14.80;2.58;;;10.40;99.90;;;;;;4977216;28;20026;-93
2022/05/20 03:48:25;;;;;;;7.50;2.08;;;10.40;99.90;;;;;;4994291;28;20054;-94
2022/05/20 03:50:51;;;;;;;8.77;2.25;;;10.40;99.90;;;;;;4976905;28;20022;-93
2022/05/20 03:53:17;;;;;;;5.63;2.50;;;10.40;99.90;;;;;;4976727;28;20030;-92
2022/05/20 03:55:43;;;;;;;6.80;2.38;;;10.30;99.90;;;;;;4976744;28;20026;-92
2022/05/20 03:58:09;;;;;;;4.65;2.22;;;10.30;99.90;;;;;;4976963;28;20448;-93
2022/05/20 04:01:56;;;;;;;8.18;1.92;;;10.30;99.90;;;;;;4977297;28;20026;-92
2022/05/20 04:03:22;;;;;;;6.63;1.98;;;10.30;99.90;;;;;;5001196;28;20022;-93
2022/05/20 04:05:47;;;;;;;5.45;2.03;;;10.30;99.90;;;;;;4989049;28;20058;-92
2022/05/20 04:08:13;;;;;;;10.65;3.92;;;10.30;99.90;;;;;;4985289;28;20034;-93
2022/05/20 04:10:39;;;;;;;4.13;1.90;;;10.30;99.90;;;;;;4984810;28;20075;-92
2022/05/20 04:13:06;;;;;;;7.25;2.00;;;10.30;99.90;;;;;;4977938;28;20045;-93
2022/05/20 04:15:32;;;;;;;6.18;1.98;;;10.30;99.90;;;;;;4977431;28;20095;-94
2022/05/20 04:17:58;;;;;;;8.75;1.80;;;10.30;99.90;;;;;;4977090;28;20026;-94
2022/05/20 04:20:24;;;;;;;5.55;2.30;;;10.20;99.90;;;;;;4976736;28;20045;-92
2022/05/20 04:22:49;;;;;;;9.43;2.40;;;10.20;99.90;;;;;;4976756;28;20034;-93
2022/05/20 04:25:15;;;;;;;8.85;2.17;;;10.20;99.90;;;;;;4976794;28;20259;-94
2022/05/20 04:27:41;;;;;;;4.75;1.70;;;10.20;99.90;;;;;;4976836;28;20121;-93
2022/05/20 04:30:08;;;;;;;8.73;2.35;;;10.10;99.90;;;;;;4976243;28;20019;-93
2022/05/20 04:32:33;;;;;;;5.50;2.13;;;10.20;99.90;;;;;;4976392;28;20503;-93
2022/05/20 04:34:59;;;;;;;7.05;1.90;;;10.20;99.90;;;;;;4994181;28;20057;-92
2022/05/20 04:37:26;;;;;;;9.20;2.55;;;10.10;99.90;;;;;;4976439;28;20038;-93
2022/05/20 04:39:51;;;;;;;8.07;1.88;;;10.10;99.90;;;;;;4976315;28;20026;-93
2022/05/20 04:47:47;;;;;;;5.10;2.35;;;10.00;99.90;;;;;;4993945;28;20068;-93
2022/05/20 04:50:12;;;;;;;8.27;2.10;;;10.00;99.90;;;;;;4979829;28;20034;-92
2022/05/20 04:52:38;;;;;;;7.55;2.08;;;10.10;99.90;;;;;;4999060;28;20026;-93
2022/05/20 04:55:05;;;;;;;6.80;2.20;;;10.10;99.90;;;;;;4976897;28;20033;-93
2022/05/20 04:57:33;;;;;;;6.28;2.00;;;10.10;99.90;;;;;;4976830;28;20042;-92
2022/05/20 05:00:00;;;;;;;7.18;2.10;;;10.10;99.90;;;;;;4994000;28;20026;-94
2022/05/20 05:02:26;;;;;;;8.13;2.22;;;10.10;99.90;;;;;;4976235;28;20172;-93
2022/05/20 05:04:53;;;;;;;7.15;2.25;;;10.10;99.90;;;;;;4976184;28;20030;-93
2022/05/20 05:07:19;;;;;;;13.82;2.50;;;10.10;99.90;;;;;;4993015;28;20026;-92
2022/05/20 05:09:45;;;;;;;3.53;1.92;;;10.10;99.90;;;;;;4975916;28;20045;-94
2022/05/20 05:12:12;;;;;;;8.90;2.22;;;10.10;99.90;;;;;;4975800;28;20038;-93
2022/05/20 05:14:47;;;;;;;5.78;2.20;;;10.10;99.90;;;;;;4975903;28;20435;-94
2022/05/20 05:17:15;;;;;;;7.15;2.22;;;10.20;99.90;;;;;;4975932;28;20395;-93
2022/05/20 05:19:43;;;;;;;7.38;2.17;;;10.20;99.90;;;;;;4976120;28;20054;-92
2022/05/20 05:22:09;;;;;;;7.85;2.10;;;10.20;99.90;;;;;;4978530;28;20310;-92
2022/05/20 05:24:35;;;;;;;8.85;2.17;;;10.30;99.90;;;;;;4997428;28;20026;-93
2022/05/20 05:27:01;;;;;;;7.60;2.20;;;10.30;99.90;;;;;;4980415;28;20023;-93
2022/05/20 05:29:27;;;;;;;5.72;1.95;;;10.30;99.90;;;;;;4980166;28;20037;-91
2022/05/20 05:31:53;;;;;;;4.38;1.70;;;10.30;99.90;;;;;;4997524;28;20053;-92
2022/05/20 05:34:19;;;;;;;8.32;2.00;;;10.30;99.90;;;;;;4979647;28;20369;-92
2022/05/20 05:36:45;;;;;;;7.50;2.33;;;10.40;99.90;;;;;;4979480;28;20117;-92
2022/05/20 05:39:11;;;;;;;8.90;2.03;;;10.40;99.90;;;;;;4979524;28;20037;-93
2022/05/20 05:41:36;;;;;;;5.78;2.28;;;10.40;99.90;;;;;;4996828;28;20365;-92
2022/05/20 05:44:03;;;;;;;8.77;2.47;;;10.40;99.90;;;;;;4979529;28;20063;-93
2022/05/20 05:46:30;;;;;;;8.85;1.98;;;10.30;99.90;;;;;;4979344;28;20041;-91
2022/05/20 05:48:57;;;;;;;5.50;2.20;;;10.30;99.90;;;;;;4979625;28;20065;-93
2022/05/20 05:51:23;;;;;;;8.00;2.67;;;10.30;99.90;;;;;;4996490;28;20168;-92
2022/05/20 05:53:49;;;;;;;8.45;2.45;;;10.40;99.90;;;;;;4997093;28;20033;-92
2022/05/20 05:56:15;;;;;;;8.15;2.60;;;10.30;99.90;;;;;;4980298;28;20030;-95
2022/05/20 05:58:41;;;;;;;7.32;2.63;;;10.30;99.90;;;;;;4980015;28;20019;-92
2022/05/20 06:01:07;;;;;;;7.20;1.95;;;10.30;99.90;;;;;;4982045;28;20431;-93
2022/05/20 06:03:33;;;;;;;9.27;2.08;;;10.30;99.90;;;;;;4987133;28;20030;-93
2022/05/20 06:05:59;;;;;;;5.88;2.17;;;10.30;99.90;;;;;;4980004;28;20025;-92
2022/05/20 06:08:25;;;;;;;9.35;2.42;;;10.30;99.90;;;;;;4978305;28;20022;-94
2022/05/20 06:10:51;;;;;;;10.45;2.65;;;10.40;99.90;;;;;;4977871;28;20030;-93
2022/05/20 06:13:29;;;;;;;4.93;2.28;;;10.40;99.90;;;;;;4977983;28;20061;-95
2022/05/20 06:15:55;;;;;;;7.18;2.30;;;10.40;99.90;;;;;;4978131;28;20088;-94
2022/05/20 06:18:22;;;;;;;8.50;2.90;;;10.40;99.90;;;;;;4978491;28;20038;-93
2022/05/20 06:20:49;;;;;;;9.00;2.60;;;10.40;99.90;;;;;;4978489;28;20057;-93
2022/05/20 06:23:15;;;;;;;8.75;2.40;;;10.40;99.90;;;;;;4978200;28;20023;-93
2022/05/20 06:25:42;;;;;;;7.60;2.17;;;10.40;99.90;;;;;;4978543;28;20034;-94
2022/05/20 06:28:11;;;;;;;9.48;2.38;;;10.50;99.90;;;;;;4978222;28;20022;-92
2022/05/20 06:30:38;;;;;;;5.38;2.60;;;10.50;99.90;;;;;;4989352;28;20123;-93
2022/05/20 06:33:05;;;;;;;6.47;2.30;;;10.60;99.90;;;;;;4977487;28;20038;-95
2022/05/20 06:40:59;;;;;;;10.82;2.42;;;10.60;99.90;;;;;;4997080;28;20030;-92
2022/05/20 06:43:26;;;;;;;5.90;2.00;;;10.70;99.90;;;;;;4980648;28;20388;-92
2022/05/20 06:45:56;;;;;;;8.93;2.17;;;10.70;99.90;;;;;;4988300;28;20019;-94
2022/05/20 06:48:22;;;;;;;5.50;1.90;;;10.80;99.90;;;;;;4985253;28;20499;-92
2022/05/20 06:50:48;;;;;;;8.07;2.50;;;10.90;99.90;;;;;;4979876;28;20030;-93
2022/05/20 06:53:14;;;;;;;6.88;2.42;;;11.00;99.90;;;;;;4980168;28;20117;-93
2022/05/20 06:55:40;;;;;;;4.28;2.28;;;11.10;99.90;;;;;;4986780;28;20018;-92
2022/05/20 06:58:06;;;;;;;8.48;2.25;;;11.20;99.90;;;;;;4991401;28;20038;-91
2022/05/20 07:00:32;;;;;;;8.20;2.60;;;11.30;99.90;;;;;;4991850;28;20027;-92
2022/05/20 07:02:58;;;;;;;6.82;2.40;;;11.30;99.90;;;;;;4987031;28;20018;-92
2022/05/20 07:05:24;;;;;;;9.80;2.50;;;11.40;99.90;;;;;;4982324;28;20030;-93
2022/05/20 07:07:50;;;;;;;5.72;2.15;;;11.60;99.90;;;;;;4982513;28;20041;-93
2022/05/20 07:10:16;;;;;;;7.68;2.53;;;11.60;99.90;;;;;;4980634;28;20038;-92
2022/05/20 07:12:43;;;;;;;4.57;1.98;;;11.60;99.90;;;;;;4980976;28;20106;-94
2022/05/20 07:15:09;;;;;;;5.45;2.47;;;11.70;99.90;;;;;;4979813;28;20042;-93
2022/05/20 07:17:36;;;;;;;6.57;1.98;;;11.80;99.90;;;;;;4979282;28;20056;-92
2022/05/20 07:20:04;;;;;;;7.35;2.10;;;12.00;99.90;;;;;;4979016;28;20038;-92
2022/05/20 07:22:29;;;;;;;6.72;2.10;;;12.10;99.90;;;;;;4979445;28;20030;-92
2022/05/20 07:24:55;;;;;;;10.23;2.03;;;12.30;99.90;;;;;;4979208;28;20037;-93
2022/05/20 07:27:21;;;;;;;8.32;1.98;;;12.40;99.90;;;;;;4978506;28;20035;-94
2022/05/20 07:29:47;;;;;;;11.73;2.65;;;12.60;99.90;;;;;;4989459;28;20060;-93
2022/05/20 07:32:13;;;;;;;11.52;2.60;;;12.70;99.90;;;;;;4992332;28;20072;-94
2022/05/20 07:34:38;;;;;;;7.25;1.80;;;12.80;99.90;;;;;;4999284;28;20044;-94
2022/05/20 07:37:05;;;;;;;8.65;1.42;;;12.80;99.90;;;;;;4998646;28;20029;-93
2022/05/20 07:39:30;;;;;;;14.43;1.67;;;12.90;99.90;;;;;;4998269;28;20084;-94
2022/05/20 07:41:56;;;;;;;7.45;1.65;;;13.10;99.90;;;;;;4998529;28;20022;-94
2022/05/20 07:44:22;;;;;;;7.90;1.63;;;13.20;99.90;;;;;;4999070;28;20377;-94
2022/05/20 07:46:48;;;;;;;6.78;1.73;;;13.20;99.90;;;;;;4998603;28;20022;-94
2022/05/20 07:49:14;;;;;;;6.43;1.55;;;13.30;99.90;;;;;;4999155;28;20026;-93
2022/05/20 07:51:44;;;;;;;11.00;1.80;;;13.20;99.90;;;;;;5000481;28;20091;-94
2022/05/20 07:54:19;;;;;;;6.43;1.58;;;13.30;99.90;;;;;;5010851;28;20026;-94
2022/05/20 07:56:51;;;;;;;10.43;1.80;;;13.30;99.90;;;;;;4982364;28;20027;-93
2022/05/20 07:59:30;;;;;;;6.38;1.70;;;13.30;99.90;;;;;;4979995;28;20026;-94
2022/05/20 08:01:57;;;;;;;12.85;1.60;;;13.40;99.90;;;;;;4990169;28;20500;-94
2022/05/20 08:04:53;;;;;;;8.68;2.13;;;13.40;99.90;;;;;;4982592;28;20022;-95
2022/05/20 08:07:21;;;;;;;7.97;1.73;;;13.50;99.90;;;;;;5002850;28;20044;-95
2022/05/20 08:09:49;;;;;;;6.15;1.58;;;13.50;99.90;;;;;;4995375;28;20061;-95
2022/05/20 08:12:14;;;;;;;14.60;2.10;;;13.60;99.90;;;;;;4990901;28;20046;-94
2022/05/20 08:14:40;;;;;;;8.75;1.42;;;13.60;99.90;;;;;;4991225;28;20057;-94
2022/05/20 08:17:06;;;;;;;7.60;1.83;;;13.70;99.90;;;;;;4991389;28;20038;-94
2022/05/20 08:19:33;;;;;;;7.00;1.83;;;13.70;99.90;;;;;;4992327;28;20026;-93
2022/05/20 08:21:59;;;;;;;5.47;1.50;;;13.80;99.90;;;;;;4988761;28;20036;-95
2022/05/20 08:24:27;;;;;;;5.35;1.38;;;13.90;99.90;;;;;;4993560;28;20107;-96
2022/05/20 08:26:53;;;;;;;7.40;1.50;;;14.00;99.90;;;;;;4986676;28;20030;-94
2022/05/20 08:29:19;;;;;;;9.25;1.20;;;14.10;99.90;;;;;;4990021;28;20053;-95
2022/05/20 08:31:45;;;;;;;9.80;1.20;;;14.20;99.90;;;;;;4987680;28;20092;-93
2022/05/20 08:34:11;;;;;;;8.40;1.30;;;14.20;99.90;;;;;;5004317;28;20026;-95
2022/05/20 08:36:40;;;;;;;8.27;1.15;;;14.30;99.90;;;;;;4988737;28;20061;-93
2022/05/20 08:39:10;;;;;;;8.30;1.10;;;14.30;99.90;;;;;;4982387;28;20047;-95
2022/05/20 08:41:49;;;;;;;8.77;1.10;;;14.30;99.90;;;;;;4990508;28;20030;-96
2022/05/20 08:44:21;;;;;;;6.38;1.08;;;14.40;99.90;;;;;;5002008;28;20274;-95
2022/05/20 09:32:03;;;;;;;7.20;1.40;;;14.50;94.00;;;;;;6276098;22;1561112;-95
2022/05/20 09:34:35;;;;;;;11.65;1.30;;;15.20;94.60;;;;;;6320987;22;20003;-90
2022/05/20 09:37:03;;;;;;;7.25;1.45;;;15.30;94.30;;;;;;6321282;22;20003;-93
2022/05/20 09:39:38;;;;;;;5.15;1.20;;;15.30;93.90;;;;;;6324173;22;20040;-93
2022/05/20 09:42:22;;;;;;;15.48;2.55;;;15.30;93.40;;;;;;6332749;22;19999;-93
2022/05/20 09:44:50;;;;;;;9.60;1.13;;;15.30;92.80;;;;;;6331657;22;20014;-93
2022/05/20 09:47:43;;;;;;;8.32;0.77;;;15.40;92.80;;;;;;6330355;22;19999;-94
2022/05/20 09:50:35;;;;;;;6.13;1.17;;;15.40;91.70;;;;;;6332607;22;20102;-94
2022/05/20 09:53:07;;;;;;;5.20;0.93;;;15.40;91.20;;;;;;6336920;22;20003;-92
2022/05/20 09:55:38;;;;;;;5.03;1.20;;;15.40;91.40;;;;;;6339292;22;19995;-94
2022/05/20 09:58:28;;;;;;;7.65;1.20;;;15.40;91.20;;;;;;6336808;22;20011;-93
2022/05/20 10:01:01;;;;;;;5.22;1.27;;;15.50;90.90;;;;;;6327317;22;20006;-93
2022/05/20 10:03:35;;;;;;;12.65;1.30;;;15.60;90.80;;;;;;6337499;22;20003;-93
2022/05/20 10:06:19;;;;;;;6.72;1.20;;;15.60;90.40;;;;;;6331365;22;20007;-92
2022/05/20 10:08:51;;;;;;;6.47;1.17;;;15.70;90.40;;;;;;6335857;22;20004;-93
2022/05/20 10:11:26;;;;;;;3.88;1.38;;;15.70;89.30;;;;;;6333773;22;20010;-93
2022/05/20 10:13:58;;;;;;;9.15;1.60;;;15.70;88.40;;;;;;6330168;22;20003;-92
2022/05/20 10:16:29;;;;;;;6.97;1.40;;;15.70;88.30;;;;;;6325768;22;20027;-93
2022/05/20 10:19:14;;;;;;;5.95;1.65;;;15.70;88.20;;;;;;6325205;22;19999;-92
2022/05/20 10:21:51;;;;;;;6.30;1.02;;;15.70;88.00;;;;;;6323851;22;20003;-94
2022/05/20 10:24:30;;;;;;;6.80;1.13;;;15.80;88.20;;;;;;6319363;22;20003;-94
2022/05/20 10:27:04;;;;;;;9.77;1.42;;;15.80;87.90;;;;;;6321211;22;20023;-94
2022/05/20 10:33:01;;;;;;;5.95;1.00;;;15.80;87.70;;;;;;6317222;22;20103;-92
2022/05/20 10:35:48;;;;;;;5.55;1.00;;;15.60;88.80;;;;;;6255080;22;19999;-93
2022/05/20 10:38:14;;;;;;;5.30;1.35;;;15.40;90.70;;;;;;6310702;22;20458;-93
2022/05/20 10:40:40;;;;;;;5.95;1.20;;;15.30;91.50;;;;;;6310247;22;20000;-92
2022/05/20 10:43:21;;;;;;;6.47;1.50;;;15.20;92.30;;;;;;6308482;22;20006;-93
2022/05/20 10:48:56;;;;;;;7.80;1.45;;;15.10;93.70;;;;;;6313162;22;19909;-92
2022/05/20 10:51:30;;;;;;;7.43;1.65;;;14.90;94.20;;;;;;6313398;22;20015;-93
2022/05/20 10:54:34;;;;;;;5.32;1.48;;;14.80;95.60;;;;;;6313635;22;20027;-92
2022/05/20 10:57:19;;;;;;;7.20;1.60;;;14.80;96.30;;;;;;6309019;22;20035;-93
2022/05/20 11:00:05;;;;;;;8.00;1.40;;;14.70;96.40;;;;;;6316503;22;20140;-92
2022/05/20 11:02:40;;;;;;;5.03;1.40;;;14.70;96.70;;;;;;6309988;22;20003;-94
2022/05/20 11:05:28;;;;;;;4.95;1.15;;;14.70;97.00;;;;;;6308383;22;20003;-92
2022/05/20 11:08:21;;;;;;;5.93;1.45;;;14.70;97.40;;;;;;6307965;22;20450;-92
2022/05/20 11:11:04;;;;;;;6.65;1.90;;;14.80;97.90;;;;;;6310687;22;20079;-92
2022/05/20 11:13:39;;;;;;;6.70;2.13;;;14.80;97.70;;;;;;6312979;22;20003;-94
2022/05/20 11:16:20;;;;;;;4.90;1.70;;;14.80;97.80;;;;;;6314951;22;20081;-92
2022/05/20 11:19:12;;;;;;;13.38;1.90;;;14.80;97.20;;;;;;6311540;22;20076;-93
2022/05/20 11:21:56;;;;;;;6.00;1.67;;;14.80;97.40;;;;;;6310275;22;20003;-93
2022/05/20 11:24:33;;;;;;;8.40;1.48;;;14.80;97.40;;;;;;6311579;22;19999;-94
2022/05/20 11:27:25;;;;;;;3.83;1.48;;;14.90;97.30;;;;;;6313831;22;20007;-93
2022/05/20 11:30:01;;;;;;;9.27;2.22;;;14.90;97.10;;;;;;6308861;22;20057;-93
2022/05/20 11:32:36;;;;;;;7.53;2.30;;;15.00;97.10;;;;;;6309963;22;20023;-93
2022/05/20 11:35:43;;;;;;;3.97;1.42;;;15.10;96.90;;;;;;6313186;22;20003;-94
2022/05/20 11:38:42;;;;;;;6.10;1.70;;;15.20;96.40;;;;;;6192882;23;20344;-93
2022/05/20 11:41:28;;;;;;;9.07;1.60;;;15.20;96.30;;;;;;6191711;23;20011;-94
2022/05/20 11:44:11;;;;;;;6.47;1.90;;;15.30;96.20;;;;;;6192567;23;20416;-92
2022/05/20 11:46:59;;;;;;;5.38;1.27;;;15.30;96.00;;;;;;6200064;23;20008;-94
2022/05/20 11:49:41;;;;;;;10.20;2.10;;;15.30;95.70;;;;;;6194899;23;20055;-93
2022/05/20 11:52:22;;;;;;;13.95;2.28;;;15.40;95.70;;;;;;6191354;23;20420;-94
2022/05/20 12:25:37;;;;;;;5.07;1.92;;;16.30;91.80;;;;;;6222727;23;20004;-93
2022/05/20 12:28:02;;;;;;;9.15;2.15;;;16.30;91.40;;;;;;6193832;23;20012;-94
2022/05/20 12:30:41;;;;;;;6.93;1.65;;;16.30;91.60;;;;;;6194712;23;20016;-93
2022/05/20 12:33:24;;;;;;;4.60;1.60;;;16.30;90.90;;;;;;6196310;23;20001;-92
2022/05/20 12:36:20;;;;;;;7.40;1.77;;;16.20;90.50;;;;;;6192746;23;20396;-94
2022/05/20 12:38:49;;;;;;;7.55;1.80;;;16.40;90.70;;;;;;6188805;23;20100;-93
2022/05/20 12:41:39;;;;;;;4.15;1.67;;;16.50;90.70;;;;;;6190042;23;20005;-94
2022/05/20 13:01:56;;;;;;;10.10;2.22;;;16.50;88.20;;;;;;6309265;22;20096;-92
2022/05/20 13:04:25;;;;;;;6.05;1.65;;;16.40;88.30;;;;;;6285014;22;20086;-92
2022/05/20 13:06:51;;;;;;;5.20;1.80;;;16.30;89.20;;;;;;6282496;22;20011;-93
2022/05/20 13:09:39;;;;;;;6.10;1.83;;;16.20;89.90;;;;;;6293730;22;19999;-92
2022/05/20 13:12:08;;;;;;;8.65;2.08;;;16.20;90.20;;;;;;6289696;22;20023;-92
2022/05/20 13:14:37;;;;;;;10.70;2.20;;;16.20;90.50;;;;;;6290812;22;20011;-93
2022/05/20 13:17:04;;;;;;;6.28;1.40;;;16.30;90.60;;;;;;6287582;22;20049;-94
2022/05/20 13:19:33;;;;;;;13.93;1.75;;;16.40;90.40;;;;;;6283656;22;20009;-93
2022/05/20 13:22:04;;;;;;;5.07;1.67;;;16.40;90.30;;;;;;6282984;22;20007;-93
2022/05/20 13:24:35;;;;;;;8.43;2.10;;;16.30;90.30;;;;;;6306537;22;20329;-95
2022/05/20 13:27:21;;;;;;;9.18;1.92;;;16.30;90.40;;;;;;6313358;22;20288;-93
2022/05/20 13:29:48;;;;;;;8.68;1.35;;;16.20;90.00;;;;;;6312255;22;20014;-92
2022/05/20 13:32:27;;;;;;;10.40;2.05;;;16.10;90.10;;;;;;6315261;22;20006;-91
2022/05/20 13:34:54;;;;;;;9.80;1.98;;;15.90;90.40;;;;;;6319806;22;20142;-93
2022/05/20 13:37:36;;;;;;;8.13;2.20;;;15.80;90.90;;;;;;6314940;22;20025;-93
2022/05/20 13:40:32;;;;;;;4.82;1.60;;;15.60;91.80;;;;;;6323279;22;20006;-93
2022/05/20 13:42:58;;;;;;;7.70;1.98;;;15.30;93.30;;;;;;6314841;22;20028;-91
2022/05/20 13:51:09;;;;;;;7.88;1.98;;;14.90;96.40;;;;;;6344837;22;20017;-92
2022/05/20 13:53:38;;;;;;;4.22;1.48;;;15.00;97.20;;;;;;6317687;22;20005;-93
2022/05/20 13:56:11;;;;;;;6.43;1.50;;;15.10;97.80;;;;;;6315249;22;20007;-93
2022/05/20 13:58:41;;;;;;;8.38;2.22;;;15.20;98.20;;;;;;6314432;22;20437;-93
2022/05/20 14:01:11;;;;;;;6.20;1.70;;;15.40;98.60;;;;;;6315372;22;20467;-93
2022/05/20 14:03:45;;;;;;;4.70;1.60;;;15.60;98.80;;;;;;6311218;22;20007;-92
2022/05/20 14:06:15;;;;;;;10.38;2.97;;;15.80;98.80;;;;;;6339066;22;20558;-93
2022/05/20 14:08:55;;;;;;;7.18;1.45;;;16.10;99.10;;;;;;6311632;22;20478;-91
2022/05/20 14:11:38;;;;;;;10.63;1.50;;;16.50;99.30;;;;;;6311990;22;20226;-92
2022/05/20 14:14:13;;;;;;;7.18;1.50;;;16.80;98.20;;;;;;6313476;22;20013;-92
2022/05/20 14:16:43;;;;;;;7.72;1.35;;;17.10;98.00;;;;;;6319037;22;20011;-91
2022/05/20 14:19:29;;;;;;;3.33;1.05;;;17.40;97.20;;;;;;6317685;22;19999;-94
2022/05/20 14:22:08;;;;;;;5.82;0.98;;;17.50;95.10;;;;;;6316103;22;20013;-92
2022/05/20 14:24:37;;;;;;;4.80;1.10;;;17.40;93.40;;;;;;6311257;22;19999;-92
2022/05/20 14:27:03;;;;;;;5.10;1.65;;;17.50;93.30;;;;;;6310353;22;20013;-92
2022/05/20 14:29:33;;;;;;;5.35;1.08;;;17.90;93.00;;;;;;6311153;22;20011;-92
2022/05/20 14:32:12;;;;;;;6.15;1.20;;;18.40;92.90;;;;;;6313977;22;20462;-93
2022/05/20 14:34:40;;;;;;;3.97;1.30;;;18.70;91.40;;;;;;6313037;22;20002;-92
2022/05/20 14:37:13;;;;;;;2.88;1.05;;;19.00;90.00;;;;;;6319133;22;20003;-93
2022/05/20 14:39:56;;;;;;;7.35;1.08;;;19.10;86.40;;;;;;6314111;22;20006;-94
2022/05/20 14:42:25;;;;;;;5.25;1.00;;;19.20;83.90;;;;;;6315237;22;20087;-92
2022/05/20 14:44:55;;;;;;;1.23;0.77;;;19.30;82.60;;;;;;6319145;22;20068;-93
2022/05/20 14:47:32;;;;;;;2.65;0.90;;;19.30;80.90;;;;;;6323643;22;20054;-93
2022/05/20 14:50:14;;;;;;;5.05;1.65;;;19.20;80.30;;;;;;6318222;22;20041;-95
2022/05/20 14:52:55;;;;;;;5.60;0.95;;;19.10;80.10;;;;;;6313194;22;20093;-92
2022/05/20 14:55:31;;;;;;;7.47;1.42;;;18.90;79.90;;;;;;6313018;22;20002;-94
2022/05/20 14:58:06;;;;;;;6.82;1.13;;;18.70;80.10;;;;;;6315514;22;20026;-95
2022/05/20 15:00:33;;;;;;;6.28;1.10;;;18.60;79.50;;;;;;6322225;22;20019;-93
2022/05/20 15:03:00;;;;;;;6.82;1.15;;;18.40;78.90;;;;;;6320077;22;19999;-93
2022/05/20 15:05:31;;;;;;;5.13;0.80;;;18.20;79.60;;;;;;6317972;22;20040;-95
2022/05/20 15:08:11;;;;;;;10.27;1.20;;;18.10;80.80;;;;;;6322291;22;20067;-93
2022/05/20 15:10:38;;;;;;;2.63;0.95;;;18.20;81.00;;;;;;6318839;22;20052;-94